createdAt,value
2022-10-22T00:01:56.190Z,1.27
2022-10-22T00:04:35.389Z,1.55
2022-10-22T00:07:15.426Z,1.23
2022-10-22T00:09:52.581Z,2.53
2022-10-22T00:12:29.832Z,1.52
2022-10-22T00:15:11.683Z,1.58
2022-10-22T00:17:48.859Z,2.03
2022-10-22T00:20:28.669Z,1.80
2022-10-22T00:25:41.690Z,1.58
2022-10-22T00:28:18.134Z,1.50
2022-10-22T00:31:01.041Z,1.55
2022-10-22T00:36:13.917Z,1.52
2022-10-22T00:38:45.964Z,1.08
2022-10-22T00:41:22.725Z,1.67
2022-10-22T00:44:04.258Z,1.55
2022-10-22T00:46:41.823Z,1.15
2022-10-22T00:49:14.947Z,1.67
2022-10-22T00:51:43.635Z,1.80
2022-10-22T00:54:14.971Z,2.30
2022-10-22T00:56:54.104Z,1.55
2022-10-22T00:59:33.353Z,1.17
2022-10-22T01:02:18.069Z,1.63
2022-10-22T01:04:49.391Z,1.30
2022-10-22T01:07:24.268Z,1.48
2022-10-22T01:09:58.255Z,2.20
2022-10-22T01:12:51.189Z,1.73
2022-10-22T01:15:41.808Z,1.27
2022-10-22T01:18:32.176Z,1.42
2022-10-22T01:21:28.676Z,1.35
2022-10-22T01:24:39.721Z,1.08
2022-10-22T01:27:28.286Z,1.60
2022-10-22T01:30:36.249Z,1.27
2022-10-22T01:33:25.169Z,2.38
2022-10-22T01:35:56.485Z,1.10
2022-10-22T01:38:34.647Z,0.95
2022-10-22T01:41:18.732Z,1.13
2022-10-22T01:43:50.042Z,1.30
2022-10-22T01:46:21.335Z,1.85
2022-10-22T01:49:28.912Z,0.85
2022-10-22T01:52:33.299Z,2.20
2022-10-22T01:55:29.244Z,1.00
2022-10-22T02:01:46.143Z,1.58
2022-10-22T02:04:52.426Z,1.70
2022-10-22T02:07:35.686Z,1.35
2022-10-22T02:10:12.780Z,1.05
2022-10-22T02:12:55.911Z,1.15
2022-10-22T02:15:37.988Z,0.95
2022-10-22T02:18:19.978Z,1.10
2022-10-22T02:20:58.666Z,1.38
2022-10-22T02:23:38.713Z,1.00
2022-10-22T02:26:59.030Z,1.40
2022-10-22T02:32:26.345Z,1.13
2022-10-22T02:35:01.427Z,1.05
2022-10-22T02:37:41.455Z,1.42
2022-10-22T02:40:10.372Z,2.28
2022-10-22T02:42:43.347Z,1.10
2022-10-22T02:45:26.567Z,1.55
2022-10-22T02:47:54.773Z,1.23
2022-10-22T02:50:26.507Z,1.25
2022-10-22T02:52:59.257Z,1.40
2022-10-22T02:55:36.298Z,1.00
2022-10-22T02:58:05.806Z,0.70
2022-10-22T03:00:36.132Z,1.83
2022-10-22T03:05:52.952Z,1.05
2022-10-22T03:08:22.000Z,0.90
2022-10-22T03:10:59.233Z,1.13
2022-10-22T03:13:28.208Z,1.98
2022-10-22T03:15:59.587Z,1.20
2022-10-22T03:18:31.705Z,1.02
2022-10-22T03:21:39.251Z,1.88
2022-10-22T03:24:24.513Z,0.80
2022-10-22T03:26:58.191Z,1.30
2022-10-22T03:29:36.511Z,1.02
2022-10-22T03:32:04.983Z,1.48
2022-10-22T03:34:35.730Z,2.70
2022-10-22T03:37:19.783Z,1.90
2022-10-22T03:39:59.592Z,1.20
2022-10-22T03:42:36.617Z,1.40
2022-10-22T03:45:09.419Z,0.85
2022-10-22T03:47:45.612Z,1.48
2022-10-22T03:50:17.358Z,1.60
2022-10-22T03:52:51.815Z,1.65
2022-10-22T03:55:27.794Z,3.00
2022-10-22T03:58:04.726Z,2.13
2022-10-22T04:00:36.039Z,3.13
2022-10-22T04:03:08.601Z,1.23
2022-10-22T04:05:45.683Z,1.42
2022-10-22T04:08:22.694Z,0.90
2022-10-22T04:11:03.550Z,0.80
2022-10-22T04:13:37.370Z,1.52
2022-10-22T04:16:15.288Z,0.75
2022-10-22T04:18:52.589Z,1.23
2022-10-22T04:21:32.111Z,1.20
2022-10-22T04:24:07.611Z,1.52
2022-10-22T04:26:36.376Z,0.60
2022-10-22T04:29:10.639Z,1.30
2022-10-22T04:31:46.626Z,2.75
2022-10-22T04:34:18.527Z,1.58
2022-10-22T04:36:51.564Z,1.50
2022-10-22T04:39:23.509Z,1.13
2022-10-22T04:41:53.577Z,1.55
2022-10-22T04:44:31.581Z,1.10
2022-10-22T04:47:04.034Z,1.63
2022-10-22T04:49:35.576Z,1.48
2022-10-22T04:52:19.959Z,1.48
2022-10-22T04:54:56.938Z,1.20
2022-10-22T04:57:29.462Z,0.95
2022-10-22T05:00:04.804Z,0.85
2022-10-22T05:02:36.845Z,1.92
2022-10-22T05:05:09.828Z,1.83
2022-10-22T05:07:39.566Z,1.15
2022-10-22T05:10:07.362Z,1.38
2022-10-22T05:12:38.243Z,1.23
2022-10-22T05:15:16.184Z,1.05
2022-10-22T05:17:51.704Z,1.23
2022-10-22T05:20:27.484Z,0.90
2022-10-22T05:22:59.389Z,0.88
2022-10-22T05:25:32.866Z,1.13
2022-10-22T05:28:17.531Z,1.38
2022-10-22T05:30:58.641Z,2.15
2022-10-22T05:33:34.103Z,1.25
2022-10-22T05:36:09.846Z,1.02
2022-10-22T05:38:41.462Z,0.88
2022-10-22T05:41:27.746Z,1.38
2022-10-22T05:44:00.496Z,1.17
2022-10-22T05:46:39.841Z,0.82
2022-10-22T05:49:16.551Z,0.93
2022-10-22T05:54:23.316Z,1.20
2022-10-22T05:56:59.890Z,1.23
2022-10-22T05:59:30.130Z,1.00
2022-10-22T06:02:00.167Z,1.42
2022-10-22T06:04:37.499Z,1.13
2022-10-22T06:07:24.738Z,1.05
2022-10-22T06:09:57.935Z,1.40
2022-10-22T06:12:30.281Z,1.48
2022-10-22T06:14:58.864Z,0.75
2022-10-22T06:17:30.584Z,1.50
2022-10-22T06:22:32.853Z,1.58
2022-10-22T06:25:04.749Z,1.48
2022-10-22T06:27:35.493Z,1.35
2022-10-22T06:30:07.403Z,1.50
2022-10-22T06:32:41.858Z,1.85
2022-10-22T06:35:14.934Z,1.00
2022-10-22T06:37:43.207Z,1.30
2022-10-22T06:40:14.708Z,1.08
2022-10-22T06:42:44.712Z,1.90
2022-10-22T06:45:16.369Z,0.82
2022-10-22T06:47:48.290Z,1.65
2022-10-22T06:50:27.768Z,1.30
2022-10-22T06:53:00.022Z,1.30
2022-10-22T06:55:35.519Z,2.00
2022-10-22T06:58:19.814Z,1.75
2022-10-22T07:00:52.052Z,1.52
2022-10-22T07:03:33.960Z,1.83
2022-10-22T07:06:18.468Z,1.58
2022-10-22T07:08:52.237Z,1.20
2022-10-22T07:11:29.572Z,1.48
2022-10-22T07:14:02.500Z,2.28
2022-10-22T07:16:35.045Z,2.00
2022-10-22T07:19:08.808Z,1.98
2022-10-22T07:21:48.688Z,2.47
2022-10-22T07:24:17.750Z,1.65
2022-10-22T07:26:49.261Z,2.60
2022-10-22T07:29:27.532Z,1.35
2022-10-22T07:32:07.090Z,1.95
2022-10-22T07:34:44.277Z,1.33
2022-10-22T07:42:50.275Z,1.30
2022-10-22T07:45:27.531Z,2.50
2022-10-22T07:47:54.633Z,1.27
2022-10-22T07:50:22.664Z,2.15
2022-10-22T07:52:58.191Z,1.55
2022-10-22T07:55:35.956Z,1.05
2022-10-22T07:58:07.936Z,2.03
2022-10-22T08:00:44.155Z,1.80
2022-10-22T08:03:21.010Z,2.00
2022-10-22T08:05:52.425Z,1.83
2022-10-22T08:08:27.152Z,1.83
2022-10-22T08:11:00.942Z,1.92
2022-10-22T08:13:33.154Z,2.13
2022-10-22T08:18:52.072Z,1.92
2022-10-22T08:21:31.588Z,2.03
2022-10-22T08:24:10.810Z,3.50
2022-10-22T08:26:44.397Z,2.47
2022-10-22T08:29:18.863Z,2.28
2022-10-22T08:31:54.347Z,1.98
2022-10-22T08:34:34.803Z,1.55
2022-10-22T08:37:08.319Z,1.40
2022-10-22T08:39:45.851Z,1.40
2022-10-22T08:42:57.015Z,1.65
2022-10-22T08:46:31.172Z,2.75
2022-10-22T08:49:12.133Z,1.25
2022-10-22T08:51:52.044Z,1.67
2022-10-22T08:55:01.926Z,2.20
2022-10-22T08:58:11.070Z,1.50
2022-10-22T09:00:50.284Z,2.00
2022-10-22T09:03:58.027Z,1.50
2022-10-22T09:06:33.684Z,1.58
2022-10-22T09:09:07.315Z,2.03
2022-10-22T09:11:43.990Z,2.17
2022-10-22T09:14:30.016Z,1.98
2022-10-22T09:17:10.895Z,1.77
2022-10-22T09:20:27.134Z,2.30
2022-10-22T09:23:22.896Z,1.85
2022-10-22T09:25:56.745Z,1.70
2022-10-22T09:28:31.499Z,2.10
2022-10-22T09:31:02.292Z,1.73
2022-10-22T09:33:35.712Z,3.78
2022-10-22T09:36:17.280Z,1.85
2022-10-22T09:38:54.485Z,1.30
2022-10-22T09:41:31.097Z,2.95
2022-10-22T09:44:07.974Z,1.85
2022-10-22T09:46:53.172Z,1.90
2022-10-22T09:49:26.085Z,2.70
2022-10-22T09:52:24.163Z,1.58
2022-10-22T09:55:01.029Z,2.05
2022-10-22T09:57:32.958Z,1.60
2022-10-22T10:02:50.310Z,1.77
2022-10-22T10:05:42.672Z,1.70
2022-10-22T10:08:24.148Z,1.80
2022-10-22T10:11:00.247Z,1.85
2022-10-22T10:14:04.211Z,2.00
2022-10-22T10:16:50.153Z,1.70
2022-10-22T10:19:54.541Z,2.72
2022-10-22T10:23:02.627Z,1.85
2022-10-22T10:25:37.649Z,2.22
2022-10-22T10:28:36.038Z,2.00
2022-10-22T10:31:10.335Z,1.77
2022-10-22T10:34:28.523Z,2.60
2022-10-22T10:37:21.570Z,2.05
2022-10-22T10:40:39.357Z,2.60
2022-10-22T10:43:22.385Z,2.40
2022-10-22T10:46:37.667Z,3.75
2022-10-22T10:49:20.128Z,2.40
2022-10-22T10:54:46.610Z,2.05
2022-10-22T10:57:51.044Z,1.60
2022-10-22T11:00:23.403Z,1.60
2022-10-22T11:03:24.326Z,2.15
2022-10-22T11:06:01.273Z,1.88
2022-10-22T11:09:01.885Z,2.03
2022-10-22T11:11:35.324Z,3.53
2022-10-22T11:14:29.979Z,1.48
2022-10-22T11:17:17.022Z,1.33
2022-10-22T11:20:08.555Z,2.50
2022-10-22T11:23:17.448Z,2.70
2022-10-22T11:25:48.566Z,1.77
2022-10-22T11:28:41.389Z,2.75
2022-10-22T11:31:24.722Z,2.17
2022-10-22T11:34:28.474Z,2.22
2022-10-22T11:37:06.450Z,2.08
2022-10-22T11:39:50.615Z,2.53
2022-10-22T11:42:26.233Z,2.33
2022-10-22T11:45:21.513Z,1.52
2022-10-22T11:50:47.476Z,2.05
2022-10-22T11:53:39.303Z,2.22
2022-10-22T11:56:13.045Z,2.25
2022-10-22T11:58:54.767Z,4.07
2022-10-22T12:01:30.477Z,1.83
2022-10-22T12:04:25.656Z,1.92
2022-10-22T12:07:09.816Z,1.80
2022-10-22T12:09:47.110Z,1.75
2022-10-22T12:12:23.610Z,2.25
2022-10-22T12:15:04.914Z,1.63
2022-10-22T12:17:41.626Z,2.03
2022-10-22T12:20:14.623Z,2.10
2022-10-22T12:22:52.163Z,1.77
2022-10-22T12:25:25.329Z,1.80
2022-10-22T12:27:56.598Z,1.75
2022-10-22T12:30:43.985Z,2.40
2022-10-22T12:33:23.857Z,2.38
2022-10-22T12:36:02.570Z,2.22
2022-10-22T12:38:42.080Z,3.15
2022-10-22T12:41:23.526Z,1.80
2022-10-22T12:44:06.726Z,2.47
2022-10-22T12:46:38.195Z,2.13
2022-10-22T12:49:17.474Z,2.78
2022-10-22T12:51:55.711Z,1.80
2022-10-22T12:54:41.722Z,2.22
2022-10-22T12:57:17.760Z,3.63
2022-10-22T12:59:51.831Z,2.70
2022-10-22T13:02:29.645Z,1.83
2022-10-22T13:05:40.351Z,2.58
2022-10-22T13:08:22.305Z,2.95
2022-10-22T13:11:03.116Z,2.38
2022-10-22T13:13:45.645Z,3.20
2022-10-22T13:16:23.735Z,2.22
2022-10-22T13:18:57.517Z,1.92
2022-10-22T13:21:45.674Z,2.08
2022-10-22T13:24:39.955Z,2.65
2022-10-22T13:27:15.483Z,2.70
2022-10-22T13:29:52.609Z,2.70
2022-10-22T13:32:51.264Z,2.97
2022-10-22T13:35:29.675Z,17.85
2022-10-22T13:38:05.161Z,15.05
2022-10-22T13:40:42.044Z,15.38
2022-10-22T13:43:20.654Z,12.35
2022-10-22T13:45:55.791Z,14.55
2022-10-22T13:48:28.184Z,21.60
2022-10-22T13:50:59.403Z,10.95
2022-10-22T13:53:30.618Z,10.60
2022-10-22T13:56:01.076Z,13.07
2022-10-22T13:58:38.138Z,7.53
2022-10-22T14:01:27.276Z,10.05
2022-10-22T14:04:03.043Z,10.75
2022-10-22T14:09:12.101Z,7.97
2022-10-22T14:11:44.124Z,9.15
2022-10-22T14:14:14.536Z,8.82
2022-10-22T14:16:49.390Z,11.40
2022-10-22T14:19:21.158Z,12.05
2022-10-22T14:21:55.283Z,9.68
2022-10-22T14:24:26.041Z,9.57
2022-10-22T14:26:53.937Z,11.60
2022-10-22T14:29:22.335Z,10.50
2022-10-22T14:32:01.292Z,10.27
2022-10-22T14:34:33.179Z,10.68
2022-10-22T14:37:04.176Z,11.15
2022-10-22T14:39:35.412Z,11.73
2022-10-22T14:42:11.920Z,10.32
2022-10-22T14:44:51.533Z,12.73
2022-10-22T14:47:25.440Z,11.45
2022-10-22T14:49:56.784Z,13.35
2022-10-22T14:52:28.966Z,14.10
2022-10-22T14:54:58.584Z,13.80
2022-10-22T14:57:28.084Z,14.98
2022-10-22T14:59:59.781Z,12.10
2022-10-22T15:02:30.615Z,14.68
2022-10-22T15:05:01.889Z,15.43
2022-10-22T15:07:37.299Z,16.45
2022-10-22T15:10:19.022Z,10.15
2022-10-22T15:12:50.280Z,10.95
2022-10-22T15:15:22.716Z,9.82
2022-10-22T15:18:00.770Z,8.77
2022-10-22T15:20:40.039Z,11.02
2022-10-22T15:23:11.723Z,9.85
2022-10-22T15:25:51.324Z,8.68
2022-10-22T15:28:22.775Z,8.30
2022-10-22T15:31:01.038Z,8.30
2022-10-22T15:33:32.098Z,10.55
2022-10-22T15:36:19.638Z,10.60
2022-10-22T15:38:49.909Z,11.07
2022-10-22T15:41:24.476Z,9.38
2022-10-22T15:44:03.561Z,10.23
2022-10-22T15:46:38.655Z,11.82
2022-10-22T15:49:09.890Z,8.63
2022-10-22T15:51:49.735Z,10.02
2022-10-22T15:54:28.458Z,9.60
2022-10-22T15:57:07.672Z,8.23
2022-10-22T15:59:39.264Z,9.20
2022-10-22T16:02:12.024Z,8.98
2022-10-22T16:04:45.087Z,8.13
2022-10-22T16:07:18.032Z,8.35
2022-10-22T16:09:52.239Z,10.23
2022-10-22T16:12:22.578Z,9.52
2022-10-22T16:14:58.527Z,8.73
2022-10-22T16:17:28.149Z,9.35
2022-10-22T16:19:58.168Z,9.23
2022-10-22T16:22:36.049Z,9.02
2022-10-22T16:25:07.283Z,8.82
2022-10-22T16:27:41.294Z,8.93
2022-10-22T16:30:21.071Z,9.48
2022-10-22T16:32:57.885Z,11.00
2022-10-22T16:35:29.338Z,10.13
2022-10-22T16:38:01.565Z,8.60
2022-10-22T16:40:33.929Z,10.93
2022-10-22T16:45:54.250Z,9.63
2022-10-22T16:48:22.483Z,9.27
2022-10-22T16:50:53.815Z,8.20
2022-10-22T16:53:25.899Z,9.50
2022-10-22T16:55:55.906Z,8.30
2022-10-22T16:58:28.561Z,9.85
2022-10-22T17:01:06.431Z,9.57
2022-10-22T17:03:37.394Z,10.80
2022-10-22T17:06:08.557Z,8.82
2022-10-22T17:08:47.207Z,9.27
2022-10-22T17:11:25.307Z,9.25
2022-10-22T17:13:59.885Z,8.02
2022-10-22T17:16:34.295Z,7.63
2022-10-22T17:19:06.238Z,7.60
2022-10-22T17:21:38.879Z,6.88
2022-10-22T17:24:08.886Z,8.90
2022-10-22T17:26:41.459Z,8.00
2022-10-22T17:29:24.368Z,8.43
2022-10-22T17:31:56.734Z,7.25
2022-10-22T17:34:28.019Z,8.85
2022-10-22T17:37:12.039Z,7.38
2022-10-22T17:39:46.427Z,7.75
2022-10-22T17:42:18.384Z,6.82
2022-10-22T17:44:55.239Z,7.20
2022-10-22T17:47:27.576Z,7.20
2022-10-22T17:49:57.550Z,9.63
2022-10-22T17:52:28.808Z,54.05
2022-10-22T17:55:03.522Z,27.48
2022-10-22T17:57:36.151Z,17.60
2022-10-22T18:00:09.044Z,19.10
2022-10-22T18:02:42.855Z,19.85
2022-10-22T18:05:26.422Z,22.75
2022-10-22T18:08:05.553Z,22.83
2022-10-22T18:10:46.869Z,21.92
2022-10-22T18:13:24.788Z,20.45
2022-10-22T18:16:05.291Z,20.52
2022-10-22T18:18:38.684Z,22.38
2022-10-22T18:21:10.311Z,20.25
2022-10-22T18:23:42.073Z,20.88
2022-10-22T18:29:02.157Z,21.17
2022-10-22T18:31:35.280Z,14.27
2022-10-22T18:34:07.162Z,16.30
2022-10-22T18:36:38.250Z,15.98
2022-10-22T18:39:18.559Z,19.33
2022-10-22T18:41:48.659Z,18.42
2022-10-22T18:44:21.315Z,14.60
2022-10-22T18:46:52.174Z,18.42
2022-10-22T18:49:27.807Z,11.68
2022-10-22T18:52:03.035Z,16.13
2022-10-22T18:54:40.009Z,14.68
2022-10-22T18:57:11.317Z,13.35
2022-10-22T18:59:41.191Z,12.68
2022-10-22T19:02:17.059Z,13.57
2022-10-22T19:04:44.723Z,14.05
2022-10-22T19:07:16.826Z,15.35
2022-10-22T19:09:50.094Z,13.07
2022-10-22T19:12:24.508Z,16.85
2022-10-22T19:14:55.793Z,14.93
2022-10-22T19:17:34.071Z,11.70
2022-10-22T19:20:07.291Z,11.75
2022-10-22T19:22:39.690Z,12.40
2022-10-22T19:25:09.740Z,11.63
2022-10-22T19:27:48.542Z,14.50
2022-10-22T19:30:21.345Z,10.77
2022-10-22T19:32:51.951Z,11.38
2022-10-22T19:35:24.786Z,11.63
2022-10-22T19:37:56.834Z,12.30
2022-10-22T19:40:29.220Z,9.52
2022-10-22T19:43:00.575Z,11.30
2022-10-22T19:45:30.131Z,14.25
2022-10-22T19:48:04.729Z,10.10
2022-10-22T19:50:35.707Z,11.15
2022-10-22T19:53:05.736Z,12.40
2022-10-22T19:55:36.707Z,13.15
2022-10-22T19:58:06.554Z,11.90
2022-10-22T20:00:36.407Z,18.17
2022-10-22T20:03:10.946Z,15.43
2022-10-22T20:05:48.948Z,16.30
2022-10-22T20:08:18.998Z,14.50
2022-10-22T20:10:55.916Z,14.95
2022-10-22T20:13:32.225Z,17.00
2022-10-22T20:16:03.990Z,14.63
2022-10-22T20:18:36.768Z,15.35
2022-10-22T20:21:07.812Z,13.25
2022-10-22T20:23:37.977Z,13.50
2022-10-22T20:26:07.311Z,11.65
2022-10-22T20:28:37.405Z,14.27
2022-10-22T20:31:19.972Z,12.02
2022-10-22T20:33:57.934Z,14.10
